createdAt,value
2024-05-09T00:03:10.988Z,3.30
2024-05-09T00:06:17.969Z,5.18
2024-05-09T00:09:23.961Z,6.30
2024-05-09T00:12:30.440Z,4.75
2024-05-09T00:15:37.091Z,5.13
2024-05-09T00:18:42.876Z,8.35
2024-05-09T00:21:48.832Z,5.20
2024-05-09T00:24:54.877Z,6.45
2024-05-09T00:28:00.736Z,5.95
2024-05-09T00:31:06.792Z,5.15
2024-05-09T00:34:13.225Z,6.60
2024-05-09T00:37:19.690Z,2.83
2024-05-09T00:40:35.597Z,2.92
2024-05-09T00:43:46.423Z,4.78
2024-05-09T00:46:54.982Z,3.47
2024-05-09T00:50:04.071Z,4.20
2024-05-09T00:53:15.491Z,2.60
2024-05-09T00:56:22.693Z,3.00
2024-05-09T00:59:30.390Z,4.07
2024-05-09T01:02:36.862Z,4.60
2024-05-09T01:05:44.429Z,15.15
2024-05-09T01:08:50.593Z,3.67
2024-05-09T01:11:56.842Z,2.15
2024-05-09T01:15:02.916Z,4.35
2024-05-09T01:18:13.235Z,4.72
2024-05-09T01:21:19.861Z,4.40
2024-05-09T01:24:25.949Z,4.50
2024-05-09T01:27:32.607Z,3.60
2024-05-09T01:30:39.080Z,2.60
2024-05-09T01:33:45.165Z,5.80
2024-05-09T01:36:51.292Z,4.43
2024-05-09T01:39:57.051Z,3.63
2024-05-09T01:43:02.421Z,3.83
2024-05-09T01:46:15.857Z,4.75
2024-05-09T01:49:22.331Z,6.13
2024-05-09T01:52:28.069Z,2.83
2024-05-09T01:55:33.718Z,2.15
2024-05-09T01:58:39.731Z,5.85
2024-05-09T02:01:56.458Z,3.90
2024-05-09T02:05:04.958Z,3.13
2024-05-09T02:08:15.868Z,3.85
2024-05-09T02:11:22.095Z,8.00
2024-05-09T02:14:28.476Z,3.38
2024-05-09T02:17:34.731Z,2.35
2024-05-09T02:20:41.971Z,7.32
2024-05-09T02:23:51.587Z,7.45
2024-05-09T02:26:57.612Z,1.17
2024-05-09T02:30:04.775Z,3.25
2024-05-09T02:33:14.706Z,1.77
2024-05-09T02:36:22.823Z,2.78
2024-05-09T02:39:29.047Z,3.55
2024-05-09T02:42:35.205Z,2.42
2024-05-09T02:45:41.357Z,4.20
2024-05-09T02:48:47.335Z,5.88
2024-05-09T02:51:53.454Z,1.63
2024-05-09T02:55:00.007Z,3.88
2024-05-09T02:58:07.832Z,3.45
2024-05-09T03:01:13.728Z,4.70
2024-05-09T03:04:19.942Z,2.63
2024-05-09T03:07:26.048Z,1.80
2024-05-09T03:10:36.291Z,3.45
2024-05-09T03:13:43.955Z,2.72
2024-05-09T03:16:49.865Z,5.15
2024-05-09T03:19:55.907Z,3.60
2024-05-09T03:23:01.920Z,3.13
2024-05-09T03:26:16.372Z,8.75
2024-05-09T03:29:22.870Z,3.15
2024-05-09T03:32:29.155Z,1.83
2024-05-09T03:35:35.076Z,3.72
2024-05-09T03:38:41.398Z,3.80
2024-05-09T03:41:47.136Z,13.43
2024-05-09T03:44:53.139Z,6.88
2024-05-09T03:47:59.257Z,4.03
2024-05-09T03:51:05.880Z,4.63
2024-05-09T03:54:11.786Z,5.03
2024-05-09T03:57:17.691Z,8.48
2024-05-09T04:00:31.381Z,5.97
2024-05-09T04:03:44.291Z,9.43
2024-05-09T04:06:50.384Z,12.18
2024-05-09T04:09:56.194Z,3.75
2024-05-09T04:13:02.168Z,4.38
2024-05-09T04:16:11.150Z,6.45
2024-05-09T04:19:17.067Z,8.52
2024-05-09T04:22:23.002Z,3.72
2024-05-09T04:25:29.125Z,3.33
2024-05-09T04:28:35.502Z,7.03
2024-05-09T04:31:41.502Z,8.00
2024-05-09T04:34:47.674Z,4.82
2024-05-09T04:37:53.531Z,7.70
2024-05-09T04:40:59.991Z,4.03
2024-05-09T04:44:06.040Z,4.45
2024-05-09T04:47:11.841Z,4.60
2024-05-09T04:50:25.464Z,4.53
2024-05-09T04:53:39.666Z,4.47
2024-05-09T04:56:45.855Z,4.43
2024-05-09T04:59:51.744Z,3.67
2024-05-09T05:02:57.929Z,5.53
2024-05-09T05:06:04.043Z,6.63
2024-05-09T05:09:10.098Z,8.23
2024-05-09T05:12:34.923Z,3.63
2024-05-09T05:15:41.622Z,3.75
2024-05-09T05:18:47.383Z,2.85
2024-05-09T05:21:53.545Z,4.63
2024-05-09T05:24:59.303Z,3.35
2024-05-09T05:28:06.056Z,1.95
2024-05-09T05:31:11.672Z,4.00
2024-05-09T05:34:17.656Z,4.65
2024-05-09T05:37:23.123Z,3.20
2024-05-09T05:40:36.047Z,3.83
2024-05-09T05:43:44.353Z,2.63
2024-05-09T05:46:51.110Z,3.15
2024-05-09T05:49:56.956Z,9.95
2024-05-09T05:53:02.562Z,7.25
2024-05-09T05:56:08.247Z,4.28
2024-05-09T05:59:15.457Z,7.10
2024-05-09T06:02:21.871Z,3.83
2024-05-09T06:05:27.921Z,3.22
2024-05-09T06:08:34.298Z,4.78
2024-05-09T06:11:41.461Z,4.55
2024-05-09T06:14:48.516Z,5.40
2024-05-09T06:17:54.640Z,8.80
2024-05-09T06:21:01.054Z,7.00
2024-05-09T06:24:07.125Z,5.15
2024-05-09T06:27:12.687Z,7.20
2024-05-09T06:30:25.465Z,3.83
2024-05-09T06:33:37.190Z,3.55
2024-05-09T06:36:43.681Z,3.05
2024-05-09T06:39:49.470Z,4.15
2024-05-09T06:42:57.876Z,3.53
2024-05-09T06:46:04.135Z,4.95
2024-05-09T06:49:12.084Z,6.70
2024-05-09T06:52:19.724Z,7.72
2024-05-09T06:55:26.066Z,4.85
2024-05-09T06:58:32.294Z,6.60
2024-05-09T07:01:38.548Z,9.57
2024-05-09T07:04:45.014Z,3.95
2024-05-09T07:07:51.298Z,7.43
2024-05-09T07:10:58.194Z,4.80
2024-05-09T07:14:04.322Z,5.32
2024-05-09T07:17:10.779Z,9.32
2024-05-09T07:20:23.537Z,6.35
2024-05-09T07:23:39.195Z,6.20
2024-05-09T07:26:44.953Z,4.40
2024-05-09T07:29:51.264Z,5.03
2024-05-09T07:32:58.099Z,3.53
2024-05-09T07:36:04.527Z,7.03
2024-05-09T07:39:10.811Z,2.88
2024-05-09T07:42:16.824Z,3.45
2024-05-09T07:45:41.700Z,1.20
2024-05-09T07:53:22.082Z,7.45
2024-05-09T07:55:25.193Z,1.40
2024-05-09T07:58:31.536Z,3.08
2024-05-09T08:01:38.015Z,1.00
2024-05-09T08:04:44.067Z,3.42
2024-05-09T08:07:50.804Z,1.10
2024-05-09T08:10:56.661Z,1.50
2024-05-09T08:14:02.573Z,3.50
2024-05-09T08:17:08.475Z,1.85
2024-05-09T08:20:22.528Z,1.33
2024-05-09T08:23:33.226Z,1.20
2024-05-09T08:26:39.012Z,2.22
2024-05-09T08:29:44.689Z,3.60
2024-05-09T08:32:50.919Z,2.15
2024-05-09T08:35:56.862Z,2.00
2024-05-09T08:39:02.672Z,2.20
2024-05-09T08:42:08.803Z,2.42
2024-05-09T08:45:14.775Z,1.95
2024-05-09T08:48:23.637Z,3.25
2024-05-09T08:51:30.114Z,1.75
2024-05-09T08:54:36.639Z,1.98
2024-05-09T08:57:42.898Z,4.07
2024-05-09T09:00:49.540Z,2.13
2024-05-09T09:03:56.179Z,1.52
2024-05-09T09:07:03.620Z,2.80
2024-05-09T09:10:12.944Z,6.25
2024-05-09T09:13:21.330Z,2.92
2024-05-09T09:16:36.831Z,2.60
2024-05-09T09:19:43.369Z,2.75
2024-05-09T09:22:49.267Z,1.08
2024-05-09T09:25:59.899Z,2.83
2024-05-09T09:29:05.822Z,3.13
2024-05-09T09:32:12.158Z,4.35
2024-05-09T09:35:18.053Z,3.35
2024-05-09T09:38:24.731Z,2.08
2024-05-09T09:41:33.422Z,5.85
2024-05-09T09:44:42.280Z,4.55
2024-05-09T09:47:56.576Z,2.35
2024-05-09T09:54:09.029Z,6.38
2024-05-09T09:57:14.940Z,3.25
2024-05-09T10:00:30.114Z,3.50
2024-05-09T10:03:39.138Z,3.15
2024-05-09T10:06:59.909Z,2.92
2024-05-09T10:10:07.082Z,5.72
2024-05-09T15:34:56.147Z,1.55
2024-05-09T15:38:03.802Z,1.60
2024-05-09T15:41:10.683Z,3.58
2024-05-09T15:44:16.638Z,2.03
2024-05-09T15:47:23.014Z,1.42
2024-05-09T15:50:36.779Z,1.48
2024-05-09T15:53:46.237Z,1.30
2024-05-09T15:56:51.764Z,2.05
2024-05-09T15:59:58.446Z,1.55
2024-05-09T16:03:05.014Z,3.15
2024-05-09T16:06:11.203Z,1.75
2024-05-09T16:09:17.855Z,2.30
2024-05-09T16:12:25.379Z,1.27
2024-05-09T16:15:32.136Z,2.13
2024-05-09T16:18:40.182Z,2.20
2024-05-09T16:21:46.209Z,17.75
2024-05-09T16:24:52.371Z,1.63
2024-05-09T16:27:58.457Z,3.85
2024-05-09T16:31:04.544Z,1.95
2024-05-09T16:34:11.130Z,6.82
2024-05-09T16:37:16.874Z,2.38
2024-05-09T16:40:30.341Z,11.70
2024-05-09T16:43:43.789Z,7.97
2024-05-09T16:46:49.882Z,2.10
2024-05-09T16:49:56.402Z,3.47
2024-05-09T16:53:03.593Z,38.45
2024-05-09T16:56:10.703Z,37.00
2024-05-09T16:59:16.999Z,78.18
2024-05-09T17:02:23.032Z,39.20
2024-05-09T17:05:29.912Z,7.53
2024-05-09T17:08:38.120Z,5.85
2024-05-09T17:11:44.321Z,2.85
2024-05-09T17:14:50.573Z,3.15
2024-05-09T17:17:56.961Z,2.63
2024-05-09T17:21:02.987Z,3.40
2024-05-09T17:24:08.925Z,3.58
2024-05-09T17:27:15.069Z,2.83
2024-05-09T17:30:28.798Z,2.08
2024-05-09T17:33:43.175Z,2.72
2024-05-09T17:36:49.543Z,2.42
2024-05-09T17:39:55.983Z,2.47
2024-05-09T17:43:02.510Z,2.97
2024-05-09T17:46:09.615Z,2.28
2024-05-09T17:49:16.067Z,2.25
2024-05-09T17:52:22.582Z,2.70
2024-05-09T17:55:29.216Z,3.25
2024-05-09T17:58:36.002Z,2.08
2024-05-09T18:01:42.449Z,3.03
2024-05-09T18:04:49.042Z,1.95
2024-05-09T18:07:55.572Z,2.55
2024-05-09T18:11:03.419Z,3.08
2024-05-09T18:14:10.024Z,2.67
2024-05-09T18:17:16.601Z,1.60
2024-05-09T18:20:32.598Z,3.30
2024-05-09T18:23:47.051Z,1.88
2024-05-09T18:26:54.037Z,3.78
2024-05-09T18:29:59.629Z,2.45
2024-05-09T18:33:07.842Z,2.03
2024-05-09T18:36:16.207Z,3.50
2024-05-09T18:39:23.331Z,2.20
2024-05-09T18:42:31.218Z,3.00
2024-05-09T18:45:38.674Z,4.28
2024-05-09T18:48:45.022Z,3.08
2024-05-09T18:51:50.845Z,3.67
2024-05-09T18:54:56.425Z,3.90
2024-05-09T18:58:02.581Z,3.13
2024-05-09T19:01:14.970Z,3.33
2024-05-09T19:04:21.471Z,4.35
2024-05-09T19:07:27.562Z,6.63
2024-05-09T19:10:35.115Z,3.45
2024-05-09T19:13:42.216Z,3.42
2024-05-09T19:16:47.889Z,1.95
2024-05-09T19:19:54.039Z,3.47
2024-05-09T19:23:00.222Z,2.58
2024-05-09T19:26:07.414Z,7.45
2024-05-09T19:29:13.703Z,2.42
2024-05-09T19:32:20.595Z,3.88
2024-05-09T19:35:26.828Z,4.20
2024-05-09T19:38:33.209Z,3.50
2024-05-09T19:41:38.566Z,3.83
2024-05-09T19:44:43.949Z,5.82
2024-05-09T19:47:50.127Z,2.85
2024-05-09T19:50:56.666Z,5.15
2024-05-09T19:54:02.928Z,2.72
2024-05-09T19:57:09.691Z,6.95
2024-05-09T20:00:21.957Z,3.70
2024-05-09T20:03:37.236Z,3.20
2024-05-09T20:06:43.603Z,9.15
2024-05-09T20:09:49.487Z,4.43
2024-05-09T20:12:55.512Z,4.93
2024-05-09T20:16:02.069Z,4.95
2024-05-09T20:19:08.385Z,3.25
2024-05-09T20:22:14.399Z,4.15
2024-05-09T20:25:20.589Z,4.18
2024-05-09T20:28:27.599Z,4.95
2024-05-09T20:31:34.197Z,10.45
2024-05-09T20:34:40.982Z,4.75
2024-05-09T20:37:47.107Z,6.78
2024-05-09T20:40:53.886Z,4.43
2024-05-09T20:44:02.418Z,4.97
2024-05-09T20:47:08.628Z,8.10
2024-05-09T20:50:23.799Z,7.82
2024-05-09T20:53:39.479Z,10.73
2024-05-09T20:56:45.695Z,6.53
2024-05-09T20:59:52.110Z,13.48
2024-05-09T21:02:58.812Z,6.57
2024-05-09T21:06:05.468Z,8.52
2024-05-09T21:09:11.241Z,11.13
2024-05-09T21:12:19.131Z,7.65
2024-05-09T21:15:24.824Z,8.38
2024-05-09T21:18:30.940Z,10.23
2024-05-09T21:21:41.318Z,12.20
2024-05-09T21:24:46.971Z,11.23
2024-05-09T21:27:53.327Z,11.13
2024-05-09T21:30:59.405Z,9.15
2024-05-09T21:34:05.606Z,14.02
2024-05-09T21:37:12.162Z,9.68
2024-05-09T21:40:27.107Z,8.93
2024-05-09T21:43:40.481Z,7.15
2024-05-09T21:46:46.637Z,9.65
2024-05-09T21:49:53.227Z,11.90
2024-05-09T21:52:59.317Z,9.57
2024-05-09T21:56:05.310Z,7.35
2024-05-09T21:59:11.386Z,9.57
2024-05-09T22:02:17.231Z,8.05
2024-05-09T22:05:23.240Z,8.55
2024-05-09T22:08:29.353Z,7.57
2024-05-09T22:11:35.345Z,8.65
2024-05-09T22:14:41.569Z,9.35
2024-05-09T22:17:48.248Z,10.40
2024-05-09T22:20:55.525Z,8.18
2024-05-09T22:24:01.293Z,7.80
2024-05-09T22:27:09.053Z,10.73
2024-05-09T22:30:21.260Z,8.88
2024-05-09T22:33:34.025Z,8.13
2024-05-09T22:36:39.724Z,8.38
2024-05-09T22:39:46.085Z,6.13
2024-05-09T22:42:51.897Z,5.55
2024-05-09T22:45:58.012Z,11.55
2024-05-09T22:49:04.271Z,5.18
2024-05-09T22:52:10.216Z,6.10
2024-05-09T22:55:16.607Z,9.73
2024-05-09T22:58:23.894Z,8.13
2024-05-09T23:01:30.507Z,9.52
2024-05-09T23:04:39.039Z,6.72
2024-05-09T23:07:45.055Z,7.43
2024-05-09T23:10:51.269Z,7.07
2024-05-09T23:13:57.452Z,5.80
2024-05-09T23:17:03.205Z,11.13
2024-05-09T23:20:11.595Z,8.85
2024-05-09T23:23:18.542Z,6.53
2024-05-09T23:26:24.230Z,6.18
2024-05-09T23:29:29.776Z,7.97
2024-05-09T23:32:36.550Z,11.13
2024-05-09T23:35:44.557Z,6.18
2024-05-09T23:38:50.664Z,6.97
2024-05-09T23:41:56.748Z,5.75
2024-05-09T23:45:02.748Z,10.95
2024-05-09T23:48:09.610Z,8.80
2024-05-09T23:51:15.769Z,5.57
2024-05-09T23:54:21.643Z,5.78
2024-05-09T23:57:27.302Z,7.97
